createdAt,value
2019-01-03T00:00:08.317Z,3.60
2019-01-03T00:03:29.463Z,3.20
2019-01-03T00:06:36.831Z,3.03
2019-01-03T00:09:42.065Z,4.10
2019-01-03T00:12:52.182Z,3.90
2019-01-03T00:15:55.934Z,3.53
2019-01-03T00:19:05.930Z,3.53
2019-01-03T00:22:15.788Z,3.50
2019-01-03T00:25:22.369Z,3.10
2019-01-03T00:28:27.773Z,3.50
2019-01-03T00:31:33.346Z,3.20
2019-01-03T00:34:42.599Z,2.90
2019-01-03T00:37:52.393Z,2.80
2019-01-03T00:40:53.502Z,3.20
2019-01-03T00:43:51.801Z,2.83
2019-01-03T00:47:03.119Z,3.10
2019-01-03T00:50:24.852Z,3.00
2019-01-03T00:53:31.546Z,3.13
2019-01-03T00:56:38.821Z,2.67
2019-01-03T00:59:43.732Z,2.70
2019-01-03T01:03:08.666Z,3.10
2019-01-03T01:06:21.321Z,2.83
2019-01-03T01:09:23.860Z,2.73
2019-01-03T01:12:33.105Z,3.60
2019-01-03T01:15:32.901Z,3.17
2019-01-03T01:18:39.497Z,3.30
2019-01-03T01:21:55.024Z,3.43
2019-01-03T01:25:00.437Z,3.57
2019-01-03T01:28:06.913Z,3.50
2019-01-03T01:31:22.707Z,3.30
2019-01-03T01:34:37.889Z,3.70
2019-01-03T01:37:50.649Z,3.67
2019-01-03T01:41:05.970Z,3.93
2019-01-03T01:44:12.061Z,3.47
2019-01-03T01:47:11.489Z,3.77
2019-01-03T01:50:27.383Z,4.33
2019-01-03T01:53:43.261Z,3.70
2019-01-03T01:56:55.709Z,3.67
2019-01-03T02:00:09.878Z,4.27
2019-01-03T02:03:08.910Z,4.53
2019-01-03T02:06:11.451Z,3.90
2019-01-03T02:09:30.253Z,3.27
2019-01-03T02:12:52.150Z,3.67
2019-01-03T02:15:55.109Z,4.00
2019-01-03T02:19:07.756Z,3.90
2019-01-03T02:22:14.703Z,4.23
2019-01-03T02:25:27.258Z,3.83
2019-01-03T02:28:33.104Z,3.70
2019-01-03T02:31:45.322Z,4.30
2019-01-03T02:35:09.942Z,3.50
2019-01-03T02:38:13.692Z,3.80
2019-01-03T02:41:29.813Z,3.53
2019-01-03T02:44:35.411Z,3.60
2019-01-03T02:47:59.998Z,4.60
2019-01-03T02:51:05.370Z,4.20
2019-01-03T02:54:10.574Z,4.30
2019-01-03T02:57:23.613Z,4.13
2019-01-03T03:00:46.185Z,4.20
2019-01-03T03:03:58.417Z,4.47
2019-01-03T03:07:14.084Z,3.53
2019-01-03T03:10:18.977Z,4.00
2019-01-03T03:13:31.825Z,4.43
2019-01-03T03:16:31.658Z,4.40
2019-01-03T03:19:37.256Z,3.90
2019-01-03T03:22:42.558Z,4.03
2019-01-03T03:25:52.125Z,3.80
2019-01-03T03:28:57.453Z,3.40
2019-01-03T03:32:02.410Z,3.53
2019-01-03T03:35:12.913Z,4.03
2019-01-03T03:38:33.130Z,3.80
2019-01-03T03:41:31.509Z,4.37
2019-01-03T03:44:38.075Z,3.90
2019-01-03T03:47:44.765Z,3.90
2019-01-03T03:50:51.240Z,4.33
2019-01-03T03:53:56.742Z,4.30
2019-01-03T03:57:04.015Z,4.27
2019-01-03T04:00:10.417Z,3.53
2019-01-03T04:03:26.209Z,4.00
2019-01-03T04:06:31.724Z,3.40
2019-01-03T04:09:31.601Z,3.93
2019-01-03T04:12:50.608Z,4.20
2019-01-03T04:15:56.103Z,3.90
2019-01-03T04:19:14.690Z,3.33
2019-01-03T04:22:32.168Z,4.27
2019-01-03T04:25:39.460Z,3.93
2019-01-03T04:28:44.042Z,3.90
2019-01-03T04:31:45.930Z,4.37
2019-01-03T04:35:01.997Z,4.07
2019-01-03T04:38:08.787Z,4.17
2019-01-03T04:41:30.062Z,3.80
2019-01-03T04:44:37.790Z,4.03
2019-01-03T04:47:47.580Z,4.07
2019-01-03T04:51:00.078Z,3.50
2019-01-03T04:54:05.513Z,3.53
2019-01-03T04:57:09.169Z,4.00
2019-01-03T05:00:20.585Z,4.07
2019-01-03T05:03:39.701Z,4.40
2019-01-03T05:06:44.465Z,4.17
2019-01-03T05:09:57.250Z,3.90
2019-01-03T05:13:24.767Z,4.20
2019-01-03T05:16:46.150Z,4.33
2019-01-03T05:20:12.331Z,4.07
2019-01-03T05:23:39.579Z,4.00
2019-01-03T05:26:46.380Z,4.60
2019-01-03T05:29:53.370Z,4.00
2019-01-03T05:37:14.081Z,3.80
2019-01-03T05:40:38.323Z,4.40
2019-01-03T05:43:45.524Z,4.50
2019-01-03T05:47:32.257Z,3.90
2019-01-03T05:50:38.720Z,4.73
2019-01-03T05:53:57.086Z,4.50
2019-01-03T05:57:33.566Z,4.70
2019-01-03T06:00:36.664Z,5.13
2019-01-03T06:04:01.340Z,4.53
2019-01-03T06:10:26.047Z,4.50
2019-01-03T06:13:57.044Z,4.97
2019-01-03T06:17:24.630Z,5.53
2019-01-03T06:21:15.587Z,5.00
2019-01-03T06:24:21.510Z,4.80
2019-01-03T06:27:57.238Z,4.80
2019-01-03T06:31:41.453Z,5.67
2019-01-03T06:34:33.128Z,5.93
2019-01-03T06:44:36.001Z,5.37
2019-01-03T06:47:53.526Z,5.40
2019-01-03T06:51:07.315Z,5.10
2019-01-03T06:54:40.494Z,5.20
2019-01-03T06:57:47.482Z,5.87
2019-01-03T07:01:13.263Z,6.13
2019-01-03T07:04:19.206Z,5.30
2019-01-03T07:07:44.577Z,4.87
2019-01-03T07:11:29.517Z,5.13
2019-01-03T07:14:40.408Z,4.87
2019-01-03T07:18:14.776Z,5.77
2019-01-03T07:22:05.173Z,6.53
2019-01-03T07:25:23.019Z,8.30
2019-01-03T07:28:35.586Z,6.33
2019-01-03T07:31:50.801Z,5.73
2019-01-03T07:35:10.166Z,5.90
2019-01-03T07:38:32.042Z,6.50
2019-01-03T07:41:50.584Z,6.27
2019-01-03T07:48:38.129Z,7.43
2019-01-03T07:52:21.042Z,10.00
2019-01-03T07:55:17.663Z,8.70
2019-01-03T08:02:29.579Z,10.47
2019-01-03T08:05:37.621Z,9.70
2019-01-03T08:08:56.127Z,8.50
2019-01-03T08:12:12.874Z,7.53
2019-01-03T08:15:41.348Z,8.87
2019-01-03T08:18:58.552Z,6.43
2019-01-03T08:22:14.021Z,7.30
2019-01-03T08:25:34.838Z,8.50
2019-01-03T08:28:48.862Z,8.53
2019-01-03T08:35:54.441Z,7.87
2019-01-03T08:38:59.552Z,7.83
2019-01-03T08:42:11.886Z,6.30
2019-01-03T08:45:57.116Z,12.57
2019-01-03T08:49:40.292Z,6.80
2019-01-03T08:53:13.396Z,6.63
2019-01-03T08:56:48.306Z,5.80
2019-01-03T08:59:57.609Z,5.37
2019-01-03T09:03:04.640Z,6.33
2019-01-03T09:06:18.951Z,6.27
2019-01-03T09:09:58.484Z,6.07
2019-01-03T09:13:09.985Z,5.97
2019-01-03T09:16:59.792Z,6.27
2019-01-03T09:20:20.661Z,5.77
2019-01-03T09:24:10.439Z,19.60
2019-01-03T09:27:31.665Z,6.30
2019-01-03T09:30:54.319Z,7.87
2019-01-03T09:37:53.843Z,13.60
2019-01-03T09:40:59.771Z,23.87
2019-01-03T09:47:46.688Z,7.20
2019-01-03T09:50:35.662Z,6.30
2019-01-03T09:57:17.345Z,6.53
2019-01-03T10:07:52.064Z,5.80
2019-01-03T10:19:44.985Z,5.60
2019-01-03T10:22:33.264Z,5.20
2019-01-03T10:25:21.510Z,5.60
2019-01-03T10:32:16.390Z,5.50
2019-01-03T10:35:04.849Z,5.03
2019-01-03T10:38:01.695Z,5.33
2019-01-03T10:40:49.495Z,4.90
2019-01-03T10:43:37.629Z,5.37
2019-01-03T10:46:25.913Z,5.17
2019-01-03T10:49:14.069Z,5.80
2019-01-03T10:52:01.957Z,5.63
2019-01-03T10:54:50.019Z,5.03
2019-01-03T10:57:42.028Z,4.83
2019-01-03T11:00:29.797Z,5.53
2019-01-03T11:03:17.404Z,5.20
2019-01-03T11:06:07.163Z,5.47
2019-01-03T11:08:54.933Z,5.10
2019-01-03T11:11:42.265Z,5.40
2019-01-03T11:14:32.461Z,5.13
2019-01-03T11:17:20.523Z,5.50
2019-01-03T11:20:10.841Z,5.17
2019-01-03T11:22:58.586Z,5.17
2019-01-03T11:25:46.208Z,4.73
2019-01-03T11:28:34.426Z,5.40
2019-01-03T11:31:28.127Z,4.53
2019-01-03T11:35:20.332Z,4.67
2019-01-03T11:39:08.822Z,5.17
2019-01-03T11:42:18.586Z,5.20
2019-01-03T11:49:38.324Z,4.73
2019-01-03T11:52:55.429Z,5.10
2019-01-03T11:55:51.428Z,5.40
2019-01-03T11:58:44.976Z,6.80
2019-01-03T12:01:36.222Z,5.83
2019-01-03T12:04:24.070Z,5.27
2019-01-03T12:07:11.649Z,4.90
2019-01-03T12:09:59.730Z,5.13
2019-01-03T12:12:47.307Z,5.13
2019-01-03T12:15:35.933Z,4.80
2019-01-03T12:18:23.508Z,4.57
2019-01-03T12:21:11.429Z,5.80
2019-01-03T12:23:59.433Z,5.83
2019-01-03T12:26:47.836Z,5.57
2019-01-03T12:29:35.191Z,5.57
2019-01-03T12:32:23.058Z,5.07
2019-01-03T12:35:11.438Z,5.00
2019-01-03T12:37:59.610Z,5.30
2019-01-03T12:40:47.185Z,5.97
2019-01-03T12:43:35.219Z,5.90
2019-01-03T12:46:23.243Z,5.07
2019-01-03T12:49:11.098Z,5.47
2019-01-03T12:51:58.700Z,6.13
2019-01-03T12:54:47.567Z,4.60
2019-01-03T12:57:35.138Z,5.50
2019-01-03T13:00:22.921Z,5.00
2019-01-03T13:03:11.340Z,5.77
2019-01-03T13:05:58.881Z,5.50
2019-01-03T13:08:46.721Z,5.33
2019-01-03T13:11:34.580Z,6.00
2019-01-03T13:14:22.063Z,5.30
2019-01-03T13:17:10.123Z,5.43
2019-01-03T13:19:58.153Z,5.40
2019-01-03T13:22:46.149Z,6.03
2019-01-03T13:25:33.885Z,6.20
2019-01-03T13:28:22.171Z,6.17
2019-01-03T13:31:10.009Z,5.97
2019-01-03T13:33:57.957Z,6.40
2019-01-03T13:36:45.659Z,7.00
2019-01-03T13:39:33.259Z,5.37
2019-01-03T13:42:21.440Z,5.70
2019-01-03T13:45:09.243Z,6.27
2019-01-03T13:47:57.306Z,6.77
2019-01-03T13:50:44.732Z,5.93
2019-01-03T13:53:32.356Z,6.70
2019-01-03T13:56:19.883Z,6.60
2019-01-03T13:59:07.903Z,6.80
2019-01-03T14:01:56.132Z,7.50
2019-01-03T14:04:44.048Z,6.70
2019-01-03T14:07:32.095Z,6.50
2019-01-03T14:10:20.023Z,6.83
2019-01-03T14:13:08.371Z,7.20
2019-01-03T14:15:56.529Z,6.97
2019-01-03T14:18:44.287Z,6.13
2019-01-03T14:21:31.680Z,6.90
2019-01-03T14:24:19.109Z,7.07
2019-01-03T14:27:07.113Z,6.77
2019-01-03T14:29:54.888Z,6.17
2019-01-03T14:32:42.601Z,7.00
2019-01-03T14:35:32.896Z,9.07
2019-01-03T14:38:20.772Z,8.07
2019-01-03T14:41:08.804Z,8.50
2019-01-03T14:43:56.577Z,11.40
2019-01-03T14:46:44.528Z,7.40
2019-01-03T14:49:32.462Z,9.97
2019-01-03T14:52:20.242Z,10.73
2019-01-03T14:55:08.975Z,13.23
2019-01-03T14:57:56.404Z,8.33
2019-01-03T15:00:44.197Z,7.57
2019-01-03T15:03:32.384Z,8.23
2019-01-03T15:06:20.176Z,9.23
2019-01-03T15:09:08.858Z,8.27
2019-01-03T15:11:56.993Z,7.90
2019-01-03T15:14:44.805Z,8.40
2019-01-03T15:17:32.830Z,8.03
2019-01-03T15:20:20.657Z,8.33
2019-01-03T15:23:08.850Z,8.90
2019-01-03T15:25:56.482Z,8.60
2019-01-03T15:28:44.261Z,10.13
2019-01-03T15:31:32.129Z,9.13
2019-01-03T15:34:20.251Z,10.63
2019-01-03T15:37:08.697Z,10.17
2019-01-03T15:39:56.272Z,9.77
2019-01-03T15:42:45.754Z,9.03
2019-01-03T15:45:34.245Z,11.53
2019-01-03T15:48:22.615Z,9.97
2019-01-03T15:51:12.555Z,15.20
2019-01-03T15:54:02.434Z,10.70
2019-01-03T15:56:52.782Z,13.00
2019-01-03T16:00:02.709Z,15.07
2019-01-03T16:02:50.328Z,14.00
2019-01-03T16:05:39.531Z,12.03
2019-01-03T16:08:29.918Z,13.97
2019-01-03T16:11:19.685Z,12.37
2019-01-03T16:14:07.772Z,12.03
2019-01-03T16:16:55.548Z,12.07
2019-01-03T16:19:43.214Z,12.87
2019-01-03T16:22:45.331Z,15.97
2019-01-03T16:26:18.328Z,13.37
2019-01-03T16:29:05.945Z,11.23
2019-01-03T16:31:54.527Z,13.47
2019-01-03T16:34:45.568Z,14.03
2019-01-03T16:37:33.471Z,12.40
2019-01-03T16:40:25.696Z,15.67
2019-01-03T16:43:13.438Z,12.90
2019-01-03T16:46:03.015Z,14.70
2019-01-03T16:48:54.263Z,16.53
2019-01-03T16:51:41.841Z,15.03
2019-01-03T16:54:30.134Z,14.87
2019-01-03T16:57:18.741Z,14.53
2019-01-03T17:00:07.442Z,14.83
2019-01-03T17:02:55.415Z,16.90
2019-01-03T17:05:43.806Z,20.63
2019-01-03T17:08:31.514Z,20.13
2019-01-03T17:11:20.589Z,17.50
2019-01-03T17:14:08.588Z,15.63
2019-01-03T17:16:58.707Z,15.60
2019-01-03T17:19:54.553Z,15.73
2019-01-03T17:22:41.916Z,15.00
2019-01-03T17:25:30.360Z,14.73
2019-01-03T17:28:18.165Z,16.13
2019-01-03T17:31:06.333Z,15.10
2019-01-03T17:33:54.149Z,15.07
2019-01-03T17:36:42.274Z,14.50
2019-01-03T17:39:30.067Z,14.80
2019-01-03T17:42:18.107Z,13.80
2019-01-03T17:45:11.111Z,14.13
2019-01-03T17:48:06.237Z,15.10
2019-01-03T17:50:54.314Z,14.90
2019-01-03T17:53:42.403Z,15.23
2019-01-03T17:56:30.633Z,15.27
2019-01-03T17:59:18.717Z,16.20
2019-01-03T18:02:18.374Z,16.90
2019-01-03T18:05:06.911Z,15.40
2019-01-03T18:07:54.745Z,14.87
2019-01-03T18:10:42.439Z,16.27
2019-01-03T18:13:29.820Z,15.57
2019-01-03T18:16:17.901Z,15.87
2019-01-03T18:19:14.495Z,16.30
2019-01-03T18:22:02.958Z,16.00
2019-01-03T18:24:50.640Z,16.60
2019-01-03T18:28:08.467Z,17.70
2019-01-03T18:30:47.427Z,16.90
2019-01-03T18:33:39.685Z,17.77
2019-01-03T18:36:28.760Z,15.53
2019-01-03T18:39:16.808Z,15.50
2019-01-03T18:42:14.594Z,15.67
2019-01-03T18:45:09.713Z,15.83
2019-01-03T18:48:03.333Z,16.43
2019-01-03T18:50:51.440Z,16.90
2019-01-03T18:53:38.658Z,14.03
2019-01-03T18:56:26.057Z,16.23
2019-01-03T18:59:13.522Z,15.87
2019-01-03T19:02:03.059Z,16.80
2019-01-03T19:04:50.684Z,17.00
2019-01-03T19:07:38.569Z,16.40
2019-01-03T19:10:28.366Z,16.70
2019-01-03T19:13:16.067Z,18.03
2019-01-03T19:16:03.655Z,19.03
2019-01-03T19:18:51.062Z,19.23
2019-01-03T19:21:38.789Z,18.57
2019-01-03T19:24:26.497Z,17.60
2019-01-03T19:27:14.415Z,17.10
2019-01-03T19:30:02.069Z,16.63
2019-01-03T19:32:50.046Z,16.07
2019-01-03T19:35:37.108Z,18.27
2019-01-03T19:38:24.718Z,17.43
2019-01-03T19:41:12.791Z,17.10
2019-01-03T19:44:00.195Z,17.80
2019-01-03T19:46:48.115Z,17.73
2019-01-03T19:49:36.309Z,18.10
2019-01-03T19:52:24.317Z,18.20
2019-01-03T19:55:11.783Z,17.43
2019-01-03T19:57:59.294Z,18.20
2019-01-03T20:00:47.158Z,17.30
2019-01-03T20:03:35.188Z,16.37
2019-01-03T20:06:22.634Z,17.00
2019-01-03T20:09:10.475Z,18.57
2019-01-03T20:11:58.080Z,19.10
2019-01-03T20:14:45.672Z,18.47
2019-01-03T20:17:33.371Z,18.57
2019-01-03T20:20:21.207Z,18.60
2019-01-03T20:23:08.910Z,18.00
2019-01-03T20:25:57.254Z,17.10
2019-01-03T20:28:44.526Z,18.03
2019-01-03T20:31:32.337Z,16.90
2019-01-03T20:34:19.944Z,17.73
2019-01-03T20:37:07.260Z,19.00
2019-01-03T20:39:54.871Z,21.87
2019-01-03T20:42:42.247Z,21.30
2019-01-03T20:45:29.825Z,22.10
2019-01-03T20:48:17.280Z,18.30
2019-01-03T20:51:05.034Z,18.97
2019-01-03T20:53:52.449Z,18.53
2019-01-03T20:56:40.324Z,18.30
2019-01-03T20:59:29.119Z,18.40
2019-01-03T21:02:16.990Z,19.00
2019-01-03T21:05:05.183Z,18.87
2019-01-03T21:07:52.699Z,20.10
2019-01-03T21:10:39.885Z,19.13
2019-01-03T21:13:27.401Z,19.13
2019-01-03T21:16:14.709Z,21.17
2019-01-03T21:19:02.006Z,22.17
2019-01-03T21:21:49.744Z,21.50
2019-01-03T21:24:37.565Z,20.87
2019-01-03T21:27:25.366Z,19.63
2019-01-03T21:30:15.297Z,20.50
2019-01-03T21:33:03.801Z,19.73
2019-01-03T21:35:52.284Z,20.20
2019-01-03T21:38:40.557Z,20.93
2019-01-03T21:41:29.887Z,21.43
2019-01-03T21:44:17.512Z,23.17
2019-01-03T21:47:05.718Z,22.20
2019-01-03T21:49:53.391Z,23.13
2019-01-03T21:52:41.221Z,21.43
2019-01-03T21:55:28.894Z,21.37
2019-01-03T21:58:16.029Z,21.57
2019-01-03T22:01:03.314Z,22.37
2019-01-03T22:03:50.646Z,23.77
2019-01-03T22:06:38.055Z,22.73
2019-01-03T22:09:25.683Z,22.40
2019-01-03T22:12:13.649Z,22.47
2019-01-03T22:15:02.473Z,22.40
2019-01-03T22:17:50.566Z,22.30
2019-01-03T22:20:43.876Z,22.20
2019-01-03T22:23:32.326Z,21.63
2019-01-03T22:26:28.553Z,21.40
2019-01-03T22:29:16.152Z,20.23
2019-01-03T22:32:14.259Z,20.93
2019-01-03T22:35:01.590Z,19.90
2019-01-03T22:37:49.045Z,20.13
2019-01-03T22:40:36.472Z,20.33
2019-01-03T22:43:23.526Z,20.67
2019-01-03T22:46:10.617Z,19.67
2019-01-03T22:48:57.885Z,21.53
2019-01-03T22:51:45.584Z,20.17
2019-01-03T22:54:32.857Z,19.70
2019-01-03T22:57:21.137Z,20.03
2019-01-03T23:00:30.681Z,19.00
2019-01-03T23:03:18.163Z,19.23
2019-01-03T23:06:05.903Z,19.63
2019-01-03T23:08:53.349Z,19.87
2019-01-03T23:11:40.994Z,20.43
2019-01-03T23:14:29.147Z,20.40
2019-01-03T23:17:16.338Z,20.77
2019-01-03T23:20:03.981Z,20.40
2019-01-03T23:22:51.111Z,18.77
2019-01-03T23:25:38.290Z,18.13
2019-01-03T23:28:25.652Z,19.40
2019-01-03T23:31:13.011Z,19.20
2019-01-03T23:34:00.117Z,19.43
2019-01-03T23:36:47.143Z,18.43
2019-01-03T23:39:34.782Z,18.43
2019-01-03T23:42:22.980Z,18.47
2019-01-03T23:45:21.890Z,18.17
2019-01-03T23:48:09.313Z,19.30
2019-01-03T23:50:56.727Z,19.00
2019-01-03T23:53:44.027Z,20.00
2019-01-03T23:56:31.461Z,19.47
2019-01-03T23:59:18.660Z,17.80
